Time,TemperatureF,DewpointF,PressureIn,WindDirection,WindDirectionDegrees,WindSpeedMPH,WindSpeedGustMPH,Humidity,HourlyPrecipIn,Conditions,Clouds,dailyrainin,SolarRadiationWatts/m^2,SoftwareType,DateUTC
2013-07-01 00:01:00,70.0,59.0,-100.00,NNW,327,3.0,5.0,67,0.00,,,0.00,0.000000,,2013-07-01 05:01:00,
2013-07-01 00:02:00,71.0,59.0,-100.00,NW,324,3.0,5.0,65,0.00,,,0.00,0.000000,,2013-07-01 05:02:00,
2013-07-01 00:22:00,71.0,59.0,-100.00,NW,324,3.0,5.0,65,0.00,,,0.00,0.000000,,2013-07-01 05:22:00,
2013-07-01 00:33:00,71.0,59.0,-100.00,NW,324,3.0,5.0,65,0.00,,,0.00,0.000000,,2013-07-01 05:33:00,
2013-07-01 00:42:00,71.0,59.0,-100.00,NW,324,3.0,5.0,65,0.00,,,0.00,0.000000,,2013-07-01 05:42:00,
2013-07-01 00:52:00,71.0,59.0,-100.00,NW,324,3.0,5.0,65,0.00,,,0.00,0.000000,,2013-07-01 05:52:00,
2013-07-01 01:24:00,70.0,59.0,-100.00,NNW,336,2.0,7.0,68,0.00,,,0.00,0.000000,,2013-07-01 06:24:00,
2013-07-01 01:33:00,70.0,59.0,-100.00,NNW,336,2.0,7.0,68,0.00,,,0.00,0.000000,,2013-07-01 06:33:00,
2013-07-01 01:43:00,70.0,59.0,-100.00,NNW,336,2.0,7.0,68,0.00,,,0.00,0.000000,,2013-07-01 06:43:00,
2013-07-01 01:53:00,70.0,59.0,-100.00,NNW,336,2.0,7.0,68,0.00,,,0.00,0.000000,,2013-07-01 06:53:00,
2013-07-01 02:01:00,70.0,59.0,-100.00,NNW,336,2.0,7.0,68,0.00,,,0.00,0.000000,,2013-07-01 07:01:00,
2013-07-01 02:22:00,69.0,59.0,-100.00,NNW,330,2.0,5.0,70,0.00,,,0.00,0.000000,,2013-07-01 07:22:00,
2013-07-01 02:33:00,69.0,59.0,-100.00,NNW,330,2.0,5.0,70,0.00,,,0.00,0.000000,,2013-07-01 07:33:00,
2013-07-01 02:43:00,69.0,59.0,-100.00,NNW,330,2.0,5.0,70,0.00,,,0.00,0.000000,,2013-07-01 07:43:00,
2013-07-01 02:53:00,69.0,59.0,-100.00,NNW,330,2.0,5.0,70,0.00,,,0.00,0.000000,,2013-07-01 07:53:00,
2013-07-01 03:01:00,69.0,59.0,-100.00,NNW,330,2.0,5.0,70,0.00,,,0.00,0.000000,,2013-07-01 08:01:00,
2013-07-01 03:02:00,67.0,58.0,-100.00,NNW,330,3.0,6.0,72,0.00,,,0.00,0.000000,,2013-07-01 08:02:00,
2013-07-01 03:22:00,67.0,58.0,-100.00,NNW,330,3.0,6.0,72,0.00,,,0.00,0.000000,,2013-07-01 08:22:00,
2013-07-01 03:33:00,67.0,58.0,-100.00,NNW,330,3.0,6.0,72,0.00,,,0.00,0.000000,,2013-07-01 08:33:00,
2013-07-01 03:43:00,67.0,58.0,-100.00,NNW,330,3.0,6.0,72,0.00,,,0.00,0.000000,,2013-07-01 08:43:00,
2013-07-01 03:52:00,67.0,58.0,-100.00,NNW,330,3.0,6.0,72,0.00,,,0.00,0.000000,,2013-07-01 08:52:00,
2013-07-01 04:02:00,67.0,59.0,-100.00,WNW,297,2.0,6.0,75,0.00,,,0.00,0.000000,,2013-07-01 09:02:00,
2013-07-01 04:22:00,67.0,59.0,-100.00,WNW,297,2.0,6.0,75,0.00,,,0.00,0.000000,,2013-07-01 09:22:00,
2013-07-01 04:34:00,67.0,59.0,-100.00,WNW,297,2.0,6.0,75,0.00,,,0.00,0.000000,,2013-07-01 09:34:00,
2013-07-01 04:43:00,67.0,59.0,-100.00,WNW,297,2.0,6.0,75,0.00,,,0.00,0.000000,,2013-07-01 09:43:00,
2013-07-01 04:53:00,67.0,59.0,-100.00,WNW,297,2.0,6.0,75,0.00,,,0.00,0.000000,,2013-07-01 09:53:00,
2013-07-01 05:02:00,63.0,58.0,-100.00,WSW,252,2.0,4.0,85,0.00,,,0.00,0.000000,,2013-07-01 10:02:00,
2013-07-01 05:22:00,63.0,58.0,-100.00,WSW,252,2.0,4.0,85,0.00,,,0.00,0.000000,,2013-07-01 10:22:00,
2013-07-01 05:33:00,63.0,58.0,-100.00,WSW,252,2.0,4.0,85,0.00,,,0.00,0.000000,,2013-07-01 10:33:00,
2013-07-01 05:43:00,63.0,58.0,-100.00,WSW,252,2.0,4.0,85,0.00,,,0.00,0.000000,,2013-07-01 10:43:00,
2013-07-01 05:52:00,63.0,58.0,-100.00,WSW,252,2.0,4.0,85,0.00,,,0.00,0.000000,,2013-07-01 10:52:00,
2013-07-01 06:22:00,61.0,57.0,-100.00,West,266,1.0,4.0,88,0.00,,,0.00,0.000000,,2013-07-01 11:22:00,
2013-07-01 06:33:00,61.0,57.0,-100.00,West,266,1.0,4.0,88,0.00,,,0.00,0.000000,,2013-07-01 11:33:00,
2013-07-01 06:43:00,61.0,57.0,-100.00,West,266,1.0,4.0,88,0.00,,,0.00,0.000000,,2013-07-01 11:43:00,
2013-07-01 06:52:00,61.0,57.0,-100.00,West,266,1.0,4.0,88,0.00,,,0.00,0.000000,,2013-07-01 11:52:00,
2013-07-01 07:01:00,61.0,57.0,-100.00,West,266,1.0,4.0,88,0.00,,,0.00,0.000000,,2013-07-01 12:01:00,
2013-07-01 07:02:00,63.0,58.0,-100.00,WSW,257,2.0,4.0,85,0.00,,,0.00,37.000000,,2013-07-01 12:02:00,
2013-07-01 07:22:00,63.0,58.0,-100.00,WSW,257,2.0,4.0,85,0.00,,,0.00,37.000000,,2013-07-01 12:22:00,
2013-07-01 07:33:00,63.0,58.0,-100.00,WSW,257,2.0,4.0,85,0.00,,,0.00,37.000000,,2013-07-01 12:33:00,
2013-07-01 07:43:00,63.0,58.0,-100.00,WSW,257,2.0,4.0,85,0.00,,,0.00,37.000000,,2013-07-01 12:43:00,
2013-07-01 07:53:00,63.0,58.0,-100.00,WSW,257,2.0,4.0,85,0.00,,,0.00,37.000000,,2013-07-01 12:53:00,
2013-07-01 08:23:00,70.0,61.0,-100.00,WSW,239,3.0,4.0,73,0.00,,,0.00,184.000000,,2013-07-01 13:23:00,
2013-07-01 08:33:00,70.0,61.0,-100.00,WSW,239,3.0,4.0,73,0.00,,,0.00,184.000000,,2013-07-01 13:33:00,
2013-07-01 08:43:00,70.0,61.0,-100.00,WSW,239,3.0,4.0,73,0.00,,,0.00,184.000000,,2013-07-01 13:43:00,
2013-07-01 08:53:00,70.0,61.0,-100.00,WSW,239,3.0,4.0,73,0.00,,,0.00,184.000000,,2013-07-01 13:53:00,
2013-07-01 09:01:00,70.0,61.0,-100.00,WSW,239,3.0,4.0,73,0.00,,,0.00,184.000000,,2013-07-01 14:01:00,
2013-07-01 09:02:00,74.0,61.0,-100.00,NNW,327,3.0,6.0,64,0.00,,,0.00,404.000000,,2013-07-01 14:02:00,
2013-07-01 09:34:00,74.0,61.0,-100.00,NNW,327,3.0,6.0,64,0.00,,,0.00,404.000000,,2013-07-01 14:34:00,
2013-07-01 09:43:00,74.0,61.0,-100.00,NNW,327,3.0,6.0,64,0.00,,,0.00,404.000000,,2013-07-01 14:43:00,
2013-07-01 09:53:00,74.0,61.0,-100.00,NNW,327,3.0,6.0,64,0.00,,,0.00,404.000000,,2013-07-01 14:53:00,
2013-07-01 10:23:00,78.0,59.0,-100.00,NNE,18,5.0,10.0,53,0.00,,,0.00,624.000000,,2013-07-01 15:23:00,
2013-07-01 10:34:00,78.0,59.0,-100.00,NNE,18,5.0,10.0,53,0.00,,,0.00,624.000000,,2013-07-01 15:34:00,
2013-07-01 10:43:00,78.0,59.0,-100.00,NNE,18,5.0,10.0,53,0.00,,,0.00,624.000000,,2013-07-01 15:43:00,
2013-07-01 10:53:00,78.0,59.0,-100.00,NNE,18,5.0,10.0,53,0.00,,,0.00,624.000000,,2013-07-01 15:53:00,
2013-07-01 11:01:00,78.0,59.0,-100.00,NNE,18,5.0,10.0,53,0.00,,,0.00,624.000000,,2013-07-01 16:01:00,
2013-07-01 11:02:00,81.0,59.0,-100.00,NNE,24,6.0,14.0,48,0.00,,,0.00,830.000000,,2013-07-01 16:02:00,
2013-07-01 11:22:00,81.0,59.0,-100.00,NNE,24,6.0,14.0,48,0.00,,,0.00,830.000000,,2013-07-01 16:22:00,
2013-07-01 11:33:00,81.0,59.0,-100.00,NNE,24,6.0,14.0,48,0.00,,,0.00,830.000000,,2013-07-01 16:33:00,
2013-07-01 11:44:00,81.0,59.0,-100.00,NNE,24,6.0,14.0,48,0.00,,,0.00,830.000000,,2013-07-01 16:44:00,
2013-07-01 11:53:00,81.0,59.0,-100.00,NNE,24,6.0,14.0,48,0.00,,,0.00,830.000000,,2013-07-01 16:53:00,
2013-07-01 12:02:00,82.0,59.0,-100.00,NNE,33,6.0,16.0,46,0.00,,,0.00,972.000000,,2013-07-01 17:02:00,
2013-07-01 12:23:00,82.0,59.0,-100.00,NNE,33,6.0,16.0,46,0.00,,,0.00,972.000000,,2013-07-01 17:23:00,
2013-07-01 12:34:00,82.0,59.0,-100.00,NNE,33,6.0,16.0,46,0.00,,,0.00,972.000000,,2013-07-01 17:34:00,
2013-07-01 12:43:00,82.0,59.0,-100.00,NNE,33,6.0,16.0,46,0.00,,,0.00,972.000000,,2013-07-01 17:43:00,
2013-07-01 12:53:00,82.0,59.0,-100.00,NNE,33,6.0,16.0,46,0.00,,,0.00,972.000000,,2013-07-01 17:53:00,
2013-07-01 13:02:00,84.0,58.0,-100.00,North,352,5.0,12.0,41,0.00,,,0.00,1043.000000,,2013-07-01 18:02:00,
2013-07-01 13:22:00,84.0,58.0,-100.00,North,352,5.0,12.0,41,0.00,,,0.00,1043.000000,,2013-07-01 18:22:00,
2013-07-01 13:33:00,84.0,58.0,-100.00,North,352,5.0,12.0,41,0.00,,,0.00,1043.000000,,2013-07-01 18:33:00,
2013-07-01 13:44:00,84.0,58.0,-100.00,North,352,5.0,12.0,41,0.00,,,0.00,1043.000000,,2013-07-01 18:44:00,
2013-07-01 13:53:00,84.0,58.0,-100.00,North,352,5.0,12.0,41,0.00,,,0.00,1043.000000,,2013-07-01 18:53:00,
2013-07-01 14:02:00,85.0,56.0,-100.00,NNW,332,7.0,12.0,37,0.00,,,0.00,1155.000000,,2013-07-01 19:02:00,
2013-07-01 14:22:00,85.0,56.0,-100.00,NNW,332,7.0,12.0,37,0.00,,,0.00,1155.000000,,2013-07-01 19:22:00,
2013-07-01 14:34:00,85.0,56.0,-100.00,NNW,332,7.0,12.0,37,0.00,,,0.00,1155.000000,,2013-07-01 19:34:00,
2013-07-01 14:44:00,85.0,56.0,-100.00,NNW,332,7.0,12.0,37,0.00,,,0.00,1155.000000,,2013-07-01 19:44:00,
2013-07-01 14:53:00,85.0,56.0,-100.00,NNW,332,7.0,12.0,37,0.00,,,0.00,1155.000000,,2013-07-01 19:53:00,
2013-07-01 15:02:00,86.0,55.0,-100.00,North,10,5.0,16.0,35,0.00,,,0.00,1066.000000,,2013-07-01 20:02:00,
2013-07-01 15:22:00,86.0,55.0,-100.00,North,10,5.0,16.0,35,0.00,,,0.00,1066.000000,,2013-07-01 20:22:00,
2013-07-01 15:34:00,86.0,55.0,-100.00,North,10,5.0,16.0,35,0.00,,,0.00,1066.000000,,2013-07-01 20:34:00,
2013-07-01 15:43:00,86.0,55.0,-100.00,North,10,5.0,16.0,35,0.00,,,0.00,1066.000000,,2013-07-01 20:43:00,
2013-07-01 15:52:00,86.0,55.0,-100.00,North,10,5.0,16.0,35,0.00,,,0.00,1066.000000,,2013-07-01 20:52:00,
2013-07-01 16:34:00,87.0,57.0,-100.00,NE,51,6.0,12.0,36,0.00,,,0.00,885.000000,,2013-07-01 21:34:00,
2013-07-01 16:44:00,87.0,57.0,-100.00,NE,51,6.0,12.0,36,0.00,,,0.00,885.000000,,2013-07-01 21:44:00,
2013-07-01 16:53:00,87.0,57.0,-100.00,NE,51,6.0,12.0,36,0.00,,,0.00,885.000000,,2013-07-01 21:53:00,
2013-07-01 17:01:00,87.0,57.0,-100.00,NE,51,6.0,12.0,36,0.00,,,0.00,885.000000,,2013-07-01 22:01:00,
2013-07-01 17:24:00,86.0,57.0,-100.00,NE,52,5.0,11.0,37,0.00,,,0.00,761.000000,,2013-07-01 22:24:00,
2013-07-01 17:33:00,86.0,57.0,-100.00,NE,52,5.0,11.0,37,0.00,,,0.00,761.000000,,2013-07-01 22:33:00,
2013-07-01 17:43:00,86.0,57.0,-100.00,NE,52,5.0,11.0,37,0.00,,,0.00,761.000000,,2013-07-01 22:43:00,
2013-07-01 17:53:00,86.0,57.0,-100.00,NE,52,5.0,11.0,37,0.00,,,0.00,761.000000,,2013-07-01 22:53:00,
2013-07-01 18:01:00,86.0,57.0,-100.00,NE,52,5.0,11.0,37,0.00,,,0.00,761.000000,,2013-07-01 23:01:00,
2013-07-01 18:22:00,82.0,59.0,-100.00,North,9,3.0,8.0,46,0.00,,,0.00,164.000000,,2013-07-01 23:22:00,
2013-07-01 18:33:00,82.0,59.0,-100.00,North,9,3.0,8.0,46,0.00,,,0.00,164.000000,,2013-07-01 23:33:00,
2013-07-01 18:44:00,82.0,59.0,-100.00,North,9,3.0,8.0,46,0.00,,,0.00,164.000000,,2013-07-01 23:44:00,
2013-07-01 18:53:00,82.0,59.0,-100.00,North,9,3.0,8.0,46,0.00,,,0.00,164.000000,,2013-07-01 23:53:00,
2013-07-01 19:01:00,82.0,59.0,-100.00,North,9,3.0,8.0,46,0.00,,,0.00,164.000000,,2013-07-02 00:01:00,
2013-07-01 19:22:00,84.0,61.0,-100.00,NW,319,4.0,9.0,46,0.00,,,0.00,293.000000,,2013-07-02 00:22:00,
2013-07-01 19:34:00,84.0,61.0,-100.00,NW,319,4.0,9.0,46,0.00,,,0.00,293.000000,,2013-07-02 00:34:00,
2013-07-01 19:43:00,84.0,61.0,-100.00,NW,319,4.0,9.0,46,0.00,,,0.00,293.000000,,2013-07-02 00:43:00,
2013-07-01 19:53:00,84.0,61.0,-100.00,NW,319,4.0,9.0,46,0.00,,,0.00,293.000000,,2013-07-02 00:53:00,
2013-07-01 20:01:00,84.0,61.0,-100.00,NW,319,4.0,9.0,46,0.00,,,0.00,293.000000,,2013-07-02 01:01:00,
2013-07-01 20:02:00,79.0,57.0,-100.00,North,356,2.0,7.0,47,0.00,,,0.00,92.000000,,2013-07-02 01:02:00,
2013-07-01 20:22:00,79.0,57.0,-100.00,North,356,2.0,7.0,47,0.00,,,0.00,92.000000,,2013-07-02 01:22:00,
2013-07-01 20:33:00,79.0,57.0,-100.00,North,356,2.0,7.0,47,0.00,,,0.00,92.000000,,2013-07-02 01:33:00,
2013-07-01 20:43:00,79.0,57.0,-100.00,North,356,2.0,7.0,47,0.00,,,0.00,92.000000,,2013-07-02 01:43:00,
2013-07-01 20:53:00,79.0,57.0,-100.00,North,356,2.0,7.0,47,0.00,,,0.00,92.000000,,2013-07-02 01:53:00,
2013-07-01 21:22:00,73.0,61.0,-100.00,West,265,1.0,4.0,67,0.00,,,0.00,14.000000,,2013-07-02 02:22:00,
2013-07-01 21:34:00,73.0,61.0,-100.00,West,265,1.0,4.0,67,0.00,,,0.00,14.000000,,2013-07-02 02:34:00,
2013-07-01 21:43:00,73.0,61.0,-100.00,West,265,1.0,4.0,67,0.00,,,0.00,14.000000,,2013-07-02 02:43:00,
2013-07-01 21:53:00,73.0,61.0,-100.00,West,265,1.0,4.0,67,0.00,,,0.00,14.000000,,2013-07-02 02:53:00,
2013-07-01 22:01:00,73.0,61.0,-100.00,West,265,1.0,4.0,67,0.00,,,0.00,14.000000,,2013-07-02 03:01:00,
2013-07-01 22:02:00,73.0,60.0,-100.00,NW,311,3.0,4.0,63,0.00,,,0.00,0.000000,,2013-07-02 03:02:00,
2013-07-01 22:24:00,73.0,60.0,-100.00,NW,311,3.0,4.0,63,0.00,,,0.00,0.000000,,2013-07-02 03:24:00,
2013-07-01 22:33:00,73.0,60.0,-100.00,NW,311,3.0,4.0,63,0.00,,,0.00,0.000000,,2013-07-02 03:33:00,
2013-07-01 22:43:00,73.0,60.0,-100.00,NW,311,3.0,4.0,63,0.00,,,0.00,0.000000,,2013-07-02 03:43:00,
2013-07-01 22:53:00,73.0,60.0,-100.00,NW,311,3.0,4.0,63,0.00,,,0.00,0.000000,,2013-07-02 03:53:00,
2013-07-01 23:22:00,71.0,59.0,-100.00,WNW,294,3.0,6.0,66,0.00,,,0.00,0.000000,,2013-07-02 04:22:00,
2013-07-01 23:32:00,71.0,59.0,-100.00,WNW,294,3.0,6.0,66,0.00,,,0.00,0.000000,,2013-07-02 04:32:00,
2013-07-01 23:42:00,71.0,59.0,-100.00,WNW,294,3.0,6.0,66,0.00,,,0.00,0.000000,,2013-07-02 04:42:00,
2013-07-01 23:53:00,71.0,59.0,-100.00,WNW,294,3.0,6.0,66,0.00,,,0.00,0.000000,,2013-07-02 04:53:00,